Close

Questo sito utlizza cookie. Può leggere come li usiamo nella nostra Privacy Policy.

Ronchi Tower
Ronchi Tower

From Facebook

METAR & TAF

2020/12/02 11:50 LIPQ 021150Z AUTO 04006KT 350V070 9999 -RA OVC036/// 04/00 Q1013
2020/12/02 12:21 TAF LIPQ 021100Z 0212/0312 08015KT 7000 RA BKN012
2020/12/02 11:50 LIPZ 021150Z 05022KT 9000 SCT007 BKN030 02/01 Q1012 NOSIG
2020/12/02 12:21 TAF LIPZ 021100Z 0212/0318 05015KT 6000 RA BKN030 PROB30 TEMPO 0212/0214 1200 SN BKN007 BECMG 0305/0307 VRB05KT NSW
2020/12/02 11:50 LIPH 021150Z 05014G24KT 8000 -RA FEW010 BKN030 03/02 Q1012
2020/12/02 12:21 TAF LIPH 021100Z 0212/0312 08015KT 4000 RA BKN012 TEMPO 0215/0224 2000 RASN BKN004 BECMG 0300/0302 VRB05KT NSW
2020/12/02 11:50 LIRF 021150Z 35003KT 320V020 5000 2000S SHRA SCT025 SCT035 11/08 Q1008 NOSIG
2020/12/02 12:22 TAF LIRF 021100Z 0212/0318 25010KT 9999 SCT030 BECMG 0212/0214 34012KT TEMPO 0212/0221 4000 SHRA BECMG 0219/0221 VRB05KT BECMG 0304/0306 12010KT TEMPO 0304/0318 SHRA BECMG 0309/0311 27010KT
2020/12/02 11:50 LIML 021150Z 16005KT 3500 SN BR OVC004 01/01 Q1011 R36/29//95 NOSIG
2020/12/02 12:21 TAF LIML 021100Z 0212/0312 VRB04KT 3000 BR BKN010 TEMPO 0212/0214 1000 SN OVC002
2020/12/02 11:50 EDDM 021150Z 07007KT 9999 OVC015 M02/M06 Q1014 R08R/690195 NOSIG
2020/12/02 12:27 TAF EDDM 021100Z 0212/0318 10005KT 9000 BKN015 PROB30 TEMPO 0212/0214 BKN012 BECMG 0216/0219 27004KT TEMPO 0222/0303 BKN010 PROB30 TEMPO 0303/0310 2000 -SN BKN008 BECMG 0307/0310 15005KT
2020/12/02 11:50 EGSS 021150Z AUTO 22006KT 9999 BKN038 OVC044 04/03 Q1017
2020/12/02 12:09 TAF EGSS 021054Z 0212/0318 27005KT 9999 SCT035 TEMPO 0212/0222 7000 -RA BKN012 PROB30 TEMPO 0213/0217 BKN008 PROB40 TEMPO 0216/0222 2000 DZ BR BKN002 BECMG 0303/0306 20010KT TEMPO 0303/0306 BKN012 BECMG 0306/0309 14012KT BKN012 TEMPO 0308/0318 6000 RA BECMG 0309/0312 BKN009 PROB30 TEMPO 0309/0315 4000 RADZ BR BKN004 PROB40 TEMPO 0315/0318 3000 +RA BKN004
2020/12/02 11:50 EDDF 021150Z 36005KT 340V040 9999 FEW012 BKN018 02/M00 Q1017 R07L/29//95 R07C/29//95 R07R/29//95 R18/29//95 NOSIG
2020/12/02 12:27 TAF TAF EDDF 021100Z 0212/0318 05005KT 9999 FEW015 BKN025 BECMG 0217/0220 18003KT BECMG 0220/0223 BKN013 BECMG 0223/0302 OVC008 PROB40 TEMPO 0302/0304 4000 BR TEMPO 0308/0310 2500 -RASN OVC004 BECMG 0311/0315 18008KT SCT013 BKN025

FlightRadar24

Radar Meteo

Traffic data

Agosto 2018

Passeggeri: 63892-12,9% (rank: 23)
Nazionali 34490 -19,8%
Internazionali 29193 -3,0%

Movimenti: 1307+11,7% (rank: 24)
Tot commerciale 556 -7,2%
Aviazione generale 751 +31,5%

Cargo (tons): 20,6+62,5% (rank: 21)

Gennaio - Agosto 2018

Passeggeri: 507438-3,5% (rank: 23)
Nazionali 322655 -4,9%
Internazionali 182927 -0,7%

Movimenti: 10366-4,25 (rank: 22)
Tot commerciale 5328 -11,0%
Aviazione generale 5038 +4,2%

Cargo (tons): 299,2+61,9% (rank: 20)

Photo

Douglas DC-6B
Douglas DC-6B
Distinct views: 12
Douglas DC-6B
Douglas DC-6B
Distinct views: 59
Douglas DC-6B
Douglas DC-6B
Distinct views: 196
Airbus A319
Airbus A319
Total views: 1664